Terminal Aerodrome Forecast
Issued by NWS

Home | Current Version | Previous Version | Graphics & Text | Print | Product List | Glossary On
Versions: 1 2 3 4 5 6 7 8 9 10 11 12 13 14 15 16 17 18
000
FTUS43 KFGF 010500
TAFBJI
TAF
KBJI 010520Z 0106/0206 13015G22KT P6SM BKN060
     FM011100 14014G22KT P6SM BKN025
     FM011400 14014G22KT P6SM BKN035
     FM011900 18014G22KT P6SM BKN050=

USA.gov is the U.S. government's official web portal to all federal, state and local government web resources and services.